sensor_id;sensor_type;location;lat;lon;timestamp;P1;durP1;ratioP1;P2;durP2;ratioP2
51244;SDS011;37840;47.562;18.738;2023-06-22T00:01:11;8.00;;;2.70;;
51244;SDS011;37840;47.562;18.738;2023-06-22T00:03:37;6.18;;;2.90;;
51244;SDS011;37840;47.562;18.738;2023-06-22T00:06:03;7.37;;;3.00;;
51244;SDS011;37840;47.562;18.738;2023-06-22T00:08:29;8.43;;;2.95;;
51244;SDS011;37840;47.562;18.738;2023-06-22T00:10:55;6.43;;;2.85;;
51244;SDS011;37840;47.562;18.738;2023-06-22T00:13:21;8.32;;;3.58;;
51244;SDS011;37840;47.562;18.738;2023-06-22T00:15:47;6.43;;;3.37;;
51244;SDS011;37840;47.562;18.738;2023-06-22T00:18:13;8.32;;;3.47;;
51244;SDS011;37840;47.562;18.738;2023-06-22T00:20:39;4.22;;;2.85;;
51244;SDS011;37840;47.562;18.738;2023-06-22T00:23:05;7.22;;;3.30;;
51244;SDS011;37840;47.562;18.738;2023-06-22T00:25:40;9.90;;;3.03;;
51244;SDS011;37840;47.562;18.738;2023-06-22T00:28:06;3.55;;;2.75;;
51244;SDS011;37840;47.562;18.738;2023-06-22T00:30:33;8.57;;;3.30;;
51244;SDS011;37840;47.562;18.738;2023-06-22T00:32:59;5.80;;;3.20;;
51244;SDS011;37840;47.562;18.738;2023-06-22T00:35:26;5.53;;;3.28;;
51244;SDS011;37840;47.562;18.738;2023-06-22T00:37:57;6.22;;;2.95;;
51244;SDS011;37840;47.562;18.738;2023-06-22T00:40:32;6.65;;;3.00;;
51244;SDS011;37840;47.562;18.738;2023-06-22T00:42:58;5.07;;;2.80;;
51244;SDS011;37840;47.562;18.738;2023-06-22T00:45:25;4.05;;;2.40;;
51244;SDS011;37840;47.562;18.738;2023-06-22T00:47:52;6.20;;;2.85;;
51244;SDS011;37840;47.562;18.738;2023-06-22T00:50:22;5.45;;;2.97;;
51244;SDS011;37840;47.562;18.738;2023-06-22T00:52:51;4.35;;;2.80;;
51244;SDS011;37840;47.562;18.738;2023-06-22T00:55:18;6.20;;;3.28;;
51244;SDS011;37840;47.562;18.738;2023-06-22T00:57:46;6.20;;;2.67;;
51244;SDS011;37840;47.562;18.738;2023-06-22T01:00:14;7.32;;;3.17;;
51244;SDS011;37840;47.562;18.738;2023-06-22T01:02:45;9.00;;;3.20;;
51244;SDS011;37840;47.562;18.738;2023-06-22T01:05:16;9.00;;;3.00;;
51244;SDS011;37840;47.562;18.738;2023-06-22T01:07:52;7.15;;;3.40;;
51244;SDS011;37840;47.562;18.738;2023-06-22T01:18:53;6.95;;;3.08;;
51244;SDS011;37840;47.562;18.738;2023-06-22T01:21:23;9.70;;;3.22;;
51244;SDS011;37840;47.562;18.738;2023-06-22T01:23:59;6.45;;;3.17;;
51244;SDS011;37840;47.562;18.738;2023-06-22T01:29:27;6.80;;;3.33;;
51244;SDS011;37840;47.562;18.738;2023-06-22T01:31:55;5.85;;;3.15;;
51244;SDS011;37840;47.562;18.738;2023-06-22T01:34:23;6.35;;;3.40;;
51244;SDS011;37840;47.562;18.738;2023-06-22T01:36:50;5.22;;;2.90;;
51244;SDS011;37840;47.562;18.738;2023-06-22T01:39:18;6.72;;;3.33;;
51244;SDS011;37840;47.562;18.738;2023-06-22T01:41:44;8.57;;;3.50;;
51244;SDS011;37840;47.562;18.738;2023-06-22T01:44:11;4.18;;;3.10;;
51244;SDS011;37840;47.562;18.738;2023-06-22T01:46:37;5.03;;;4.12;;
51244;SDS011;37840;47.562;18.738;2023-06-22T01:49:05;9.30;;;3.47;;
51244;SDS011;37840;47.562;18.738;2023-06-22T01:51:31;9.38;;;3.55;;
51244;SDS011;37840;47.562;18.738;2023-06-22T01:53:58;9.43;;;3.65;;
51244;SDS011;37840;47.562;18.738;2023-06-22T01:56:23;7.20;;;3.80;;
51244;SDS011;37840;47.562;18.738;2023-06-22T02:01:39;6.45;;;3.85;;
51244;SDS011;37840;47.562;18.738;2023-06-22T02:04:11;7.28;;;3.90;;
51244;SDS011;37840;47.562;18.738;2023-06-22T02:06:43;5.37;;;3.30;;
51244;SDS011;37840;47.562;18.738;2023-06-22T02:09:12;9.40;;;3.47;;
51244;SDS011;37840;47.562;18.738;2023-06-22T02:11:42;11.37;;;3.80;;
51244;SDS011;37840;47.562;18.738;2023-06-22T02:14:11;10.20;;;3.53;;
51244;SDS011;37840;47.562;18.738;2023-06-22T02:16:38;7.20;;;3.58;;
51244;SDS011;37840;47.562;18.738;2023-06-22T02:19:05;7.15;;;3.17;;
51244;SDS011;37840;47.562;18.738;2023-06-22T02:21:31;7.15;;;3.28;;
51244;SDS011;37840;47.562;18.738;2023-06-22T02:23:58;7.85;;;3.67;;
51244;SDS011;37840;47.562;18.738;2023-06-22T02:26:24;6.72;;;3.05;;
51244;SDS011;37840;47.562;18.738;2023-06-22T02:28:52;8.63;;;3.33;;
51244;SDS011;37840;47.562;18.738;2023-06-22T02:31:18;9.00;;;3.83;;
51244;SDS011;37840;47.562;18.738;2023-06-22T02:33:45;4.78;;;3.10;;
51244;SDS011;37840;47.562;18.738;2023-06-22T02:36:11;9.25;;;3.12;;
51244;SDS011;37840;47.562;18.738;2023-06-22T02:38:40;7.45;;;3.50;;
51244;SDS011;37840;47.562;18.738;2023-06-22T02:41:11;6.28;;;2.87;;
51244;SDS011;37840;47.562;18.738;2023-06-22T02:43:38;5.53;;;3.60;;
51244;SDS011;37840;47.562;18.738;2023-06-22T02:46:04;8.90;;;2.97;;
51244;SDS011;37840;47.562;18.738;2023-06-22T02:48:30;5.10;;;3.22;;
51244;SDS011;37840;47.562;18.738;2023-06-22T02:50:56;8.00;;;3.37;;
51244;SDS011;37840;47.562;18.738;2023-06-22T02:53:22;9.63;;;3.50;;
51244;SDS011;37840;47.562;18.738;2023-06-22T02:55:48;6.85;;;3.50;;
51244;SDS011;37840;47.562;18.738;2023-06-22T02:58:14;6.00;;;3.25;;
51244;SDS011;37840;47.562;18.738;2023-06-22T03:00:39;6.55;;;3.50;;
51244;SDS011;37840;47.562;18.738;2023-06-22T03:03:05;6.65;;;3.70;;
51244;SDS011;37840;47.562;18.738;2023-06-22T03:05:31;6.05;;;4.05;;
51244;SDS011;37840;47.562;18.738;2023-06-22T03:07:58;4.95;;;3.70;;
51244;SDS011;37840;47.562;18.738;2023-06-22T03:10:24;7.32;;;3.80;;
51244;SDS011;37840;47.562;18.738;2023-06-22T03:12:50;6.47;;;3.47;;
51244;SDS011;37840;47.562;18.738;2023-06-22T03:15:16;7.03;;;3.10;;
51244;SDS011;37840;47.562;18.738;2023-06-22T03:17:42;6.15;;;3.05;;
51244;SDS011;37840;47.562;18.738;2023-06-22T03:20:09;5.18;;;3.45;;
51244;SDS011;37840;47.562;18.738;2023-06-22T03:22:36;6.20;;;3.53;;
51244;SDS011;37840;47.562;18.738;2023-06-22T03:25:06;6.78;;;3.83;;
51244;SDS011;37840;47.562;18.738;2023-06-22T03:27:41;8.68;;;3.53;;
51244;SDS011;37840;47.562;18.738;2023-06-22T03:30:10;5.57;;;3.28;;
51244;SDS011;37840;47.562;18.738;2023-06-22T03:32:37;6.05;;;3.10;;
51244;SDS011;37840;47.562;18.738;2023-06-22T03:35:03;7.70;;;3.00;;
51244;SDS011;37840;47.562;18.738;2023-06-22T03:37:29;7.15;;;3.08;;
51244;SDS011;37840;47.562;18.738;2023-06-22T03:39:55;10.45;;;4.35;;
51244;SDS011;37840;47.562;18.738;2023-06-22T03:42:21;9.00;;;3.58;;
51244;SDS011;37840;47.562;18.738;2023-06-22T03:44:47;5.57;;;3.58;;
51244;SDS011;37840;47.562;18.738;2023-06-22T03:47:13;6.43;;;3.28;;
51244;SDS011;37840;47.562;18.738;2023-06-22T03:49:39;6.72;;;3.62;;
51244;SDS011;37840;47.562;18.738;2023-06-22T03:52:05;9.50;;;3.78;;
51244;SDS011;37840;47.562;18.738;2023-06-22T03:54:31;4.60;;;3.40;;
51244;SDS011;37840;47.562;18.738;2023-06-22T03:56:57;9.52;;;3.67;;
51244;SDS011;37840;47.562;18.738;2023-06-22T03:59:24;5.62;;;3.53;;
51244;SDS011;37840;47.562;18.738;2023-06-22T04:01:50;5.90;;;3.70;;
51244;SDS011;37840;47.562;18.738;2023-06-22T04:04:19;7.78;;;3.37;;
51244;SDS011;37840;47.562;18.738;2023-06-22T04:06:46;6.82;;;3.37;;
51244;SDS011;37840;47.562;18.738;2023-06-22T04:09:12;5.68;;;3.80;;
51244;SDS011;37840;47.562;18.738;2023-06-22T04:11:38;10.25;;;3.65;;
51244;SDS011;37840;47.562;18.738;2023-06-22T04:14:04;7.10;;;3.70;;
51244;SDS011;37840;47.562;18.738;2023-06-22T04:16:30;5.93;;;3.67;;
51244;SDS011;37840;47.562;18.738;2023-06-22T04:18:56;5.03;;;3.70;;
51244;SDS011;37840;47.562;18.738;2023-06-22T04:21:22;5.82;;;3.80;;
51244;SDS011;37840;47.562;18.738;2023-06-22T04:23:47;7.53;;;4.65;;
51244;SDS011;37840;47.562;18.738;2023-06-22T04:26:14;6.10;;;3.70;;
51244;SDS011;37840;47.562;18.738;2023-06-22T04:28:40;10.15;;;4.55;;
51244;SDS011;37840;47.562;18.738;2023-06-22T04:31:07;8.90;;;4.43;;
51244;SDS011;37840;47.562;18.738;2023-06-22T04:33:32;6.10;;;4.07;;
51244;SDS011;37840;47.562;18.738;2023-06-22T04:35:58;5.57;;;4.10;;
51244;SDS011;37840;47.562;18.738;2023-06-22T04:38:27;7.50;;;4.12;;
51244;SDS011;37840;47.562;18.738;2023-06-22T04:40:53;9.20;;;4.40;;
51244;SDS011;37840;47.562;18.738;2023-06-22T04:43:19;7.10;;;4.57;;
51244;SDS011;37840;47.562;18.738;2023-06-22T04:45:45;7.95;;;4.35;;
51244;SDS011;37840;47.562;18.738;2023-06-22T04:48:11;8.50;;;4.37;;
51244;SDS011;37840;47.562;18.738;2023-06-22T04:50:41;8.43;;;4.32;;
51244;SDS011;37840;47.562;18.738;2023-06-22T04:53:08;10.00;;;4.28;;
51244;SDS011;37840;47.562;18.738;2023-06-22T04:58:14;8.68;;;4.57;;
51244;SDS011;37840;47.562;18.738;2023-06-22T05:00:40;6.65;;;3.72;;
51244;SDS011;37840;47.562;18.738;2023-06-22T05:16:04;11.98;;;3.05;;
51244;SDS011;37840;47.562;18.738;2023-06-22T05:21:07;10.13;;;3.03;;
51244;SDS011;37840;47.562;18.738;2023-06-22T05:31:17;7.30;;;3.00;;
51244;SDS011;37840;47.562;18.738;2023-06-22T05:47:41;4.50;;;3.33;;
51244;SDS011;37840;47.562;18.738;2023-06-22T05:50:07;5.18;;;3.03;;
51244;SDS011;37840;47.562;18.738;2023-06-22T05:52:34;5.60;;;2.87;;
51244;SDS011;37840;47.562;18.738;2023-06-22T05:55:01;6.07;;;3.30;;
51244;SDS011;37840;47.562;18.738;2023-06-22T05:57:30;5.70;;;2.90;;
51244;SDS011;37840;47.562;18.738;2023-06-22T05:59:56;10.30;;;4.95;;
51244;SDS011;37840;47.562;18.738;2023-06-22T06:02:22;12.45;;;4.75;;
51244;SDS011;37840;47.562;18.738;2023-06-22T06:04:48;10.10;;;5.55;;
51244;SDS011;37840;47.562;18.738;2023-06-22T06:07:16;9.10;;;5.30;;
51244;SDS011;37840;47.562;18.738;2023-06-22T06:09:42;8.88;;;5.30;;
51244;SDS011;37840;47.562;18.738;2023-06-22T06:12:08;8.85;;;5.45;;
51244;SDS011;37840;47.562;18.738;2023-06-22T06:14:34;9.68;;;4.60;;
51244;SDS011;37840;47.562;18.738;2023-06-22T06:17:00;8.07;;;3.70;;
51244;SDS011;37840;47.562;18.738;2023-06-22T06:19:26;5.30;;;3.80;;
51244;SDS011;37840;47.562;18.738;2023-06-22T06:21:52;6.90;;;3.80;;
51244;SDS011;37840;47.562;18.738;2023-06-22T06:24:18;6.60;;;4.05;;
51244;SDS011;37840;47.562;18.738;2023-06-22T06:26:44;5.62;;;2.80;;
51244;SDS011;37840;47.562;18.738;2023-06-22T06:29:10;5.03;;;2.85;;
51244;SDS011;37840;47.562;18.738;2023-06-22T06:31:36;5.65;;;2.83;;
51244;SDS011;37840;47.562;18.738;2023-06-22T06:34:02;4.72;;;2.53;;
51244;SDS011;37840;47.562;18.738;2023-06-22T06:36:28;4.07;;;2.58;;
51244;SDS011;37840;47.562;18.738;2023-06-22T06:38:54;4.25;;;2.35;;
51244;SDS011;37840;47.562;18.738;2023-06-22T06:41:20;4.25;;;2.40;;
51244;SDS011;37840;47.562;18.738;2023-06-22T06:43:46;6.00;;;2.87;;
51244;SDS011;37840;47.562;18.738;2023-06-22T06:46:12;4.35;;;2.75;;
51244;SDS011;37840;47.562;18.738;2023-06-22T06:48:38;6.03;;;2.15;;
51244;SDS011;37840;47.562;18.738;2023-06-22T06:51:05;4.93;;;2.10;;
51244;SDS011;37840;47.562;18.738;2023-06-22T06:53:35;4.57;;;2.67;;
51244;SDS011;37840;47.562;18.738;2023-06-22T06:56:02;5.10;;;2.90;;
51244;SDS011;37840;47.562;18.738;2023-06-22T06:58:28;5.85;;;2.80;;
51244;SDS011;37840;47.562;18.738;2023-06-22T07:00:54;4.12;;;2.47;;
51244;SDS011;37840;47.562;18.738;2023-06-22T07:03:20;4.40;;;2.30;;
51244;SDS011;37840;47.562;18.738;2023-06-22T07:05:46;5.43;;;2.25;;
51244;SDS011;37840;47.562;18.738;2023-06-22T07:08:12;3.80;;;2.20;;
51244;SDS011;37840;47.562;18.738;2023-06-22T07:10:38;5.12;;;2.67;;
51244;SDS011;37840;47.562;18.738;2023-06-22T07:13:04;4.37;;;2.50;;
51244;SDS011;37840;47.562;18.738;2023-06-22T07:15:30;5.47;;;2.60;;
51244;SDS011;37840;47.562;18.738;2023-06-22T07:17:56;7.00;;;2.47;;
51244;SDS011;37840;47.562;18.738;2023-06-22T07:20:22;4.60;;;2.40;;
51244;SDS011;37840;47.562;18.738;2023-06-22T07:22:48;6.85;;;2.72;;
51244;SDS011;37840;47.562;18.738;2023-06-22T07:25:14;3.15;;;2.15;;
51244;SDS011;37840;47.562;18.738;2023-06-22T07:27:46;7.20;;;2.97;;
51244;SDS011;37840;47.562;18.738;2023-06-22T07:30:22;5.78;;;2.35;;
51244;SDS011;37840;47.562;18.738;2023-06-22T07:32:48;5.80;;;2.65;;
51244;SDS011;37840;47.562;18.738;2023-06-22T07:35:14;5.37;;;2.62;;
51244;SDS011;37840;47.562;18.738;2023-06-22T07:37:42;5.93;;;2.67;;
51244;SDS011;37840;47.562;18.738;2023-06-22T07:40:08;6.43;;;2.80;;
51244;SDS011;37840;47.562;18.738;2023-06-22T07:42:35;5.80;;;2.33;;
51244;SDS011;37840;47.562;18.738;2023-06-22T07:45:02;4.15;;;2.30;;
51244;SDS011;37840;47.562;18.738;2023-06-22T07:47:28;5.18;;;2.50;;
51244;SDS011;37840;47.562;18.738;2023-06-22T07:49:55;6.40;;;2.60;;
51244;SDS011;37840;47.562;18.738;2023-06-22T07:52:23;6.12;;;2.22;;
51244;SDS011;37840;47.562;18.738;2023-06-22T07:54:51;3.95;;;2.67;;
51244;SDS011;37840;47.562;18.738;2023-06-22T07:57:17;6.40;;;2.78;;
51244;SDS011;37840;47.562;18.738;2023-06-22T07:59:43;6.43;;;2.95;;
51244;SDS011;37840;47.562;18.738;2023-06-22T08:02:09;5.32;;;3.03;;
51244;SDS011;37840;47.562;18.738;2023-06-22T08:04:35;4.97;;;2.17;;
51244;SDS011;37840;47.562;18.738;2023-06-22T08:07:01;6.72;;;2.60;;
51244;SDS011;37840;47.562;18.738;2023-06-22T08:09:31;5.28;;;2.30;;
51244;SDS011;37840;47.562;18.738;2023-06-22T08:11:58;7.00;;;2.60;;
51244;SDS011;37840;47.562;18.738;2023-06-22T08:14:29;3.17;;;2.15;;
51244;SDS011;37840;47.562;18.738;2023-06-22T08:16:55;7.30;;;2.50;;
51244;SDS011;37840;47.562;18.738;2023-06-22T08:19:21;4.43;;;2.40;;
51244;SDS011;37840;47.562;18.738;2023-06-22T08:21:47;3.90;;;2.37;;
51244;SDS011;37840;47.562;18.738;2023-06-22T08:24:13;13.00;;;2.80;;
51244;SDS011;37840;47.562;18.738;2023-06-22T08:26:39;5.80;;;2.37;;
51244;SDS011;37840;47.562;18.738;2023-06-22T08:29:05;4.87;;;2.60;;
51244;SDS011;37840;47.562;18.738;2023-06-22T08:31:31;5.03;;;2.35;;
51244;SDS011;37840;47.562;18.738;2023-06-22T08:34:00;5.90;;;2.40;;
51244;SDS011;37840;47.562;18.738;2023-06-22T08:36:26;5.18;;;2.20;;
51244;SDS011;37840;47.562;18.738;2023-06-22T08:38:55;7.10;;;2.78;;
51244;SDS011;37840;47.562;18.738;2023-06-22T08:41:23;5.10;;;3.03;;
51244;SDS011;37840;47.562;18.738;2023-06-22T08:43:49;5.90;;;3.60;;
51244;SDS011;37840;47.562;18.738;2023-06-22T08:46:15;4.57;;;2.90;;
51244;SDS011;37840;47.562;18.738;2023-06-22T08:48:45;12.30;;;3.53;;
51244;SDS011;37840;47.562;18.738;2023-06-22T08:51:11;6.82;;;2.85;;
51244;SDS011;37840;47.562;18.738;2023-06-22T08:53:37;5.32;;;3.10;;
51244;SDS011;37840;47.562;18.738;2023-06-22T08:56:03;7.80;;;3.25;;
51244;SDS011;37840;47.562;18.738;2023-06-22T08:58:29;5.03;;;3.15;;
51244;SDS011;37840;47.562;18.738;2023-06-22T09:00:55;5.68;;;3.90;;
51244;SDS011;37840;47.562;18.738;2023-06-22T09:03:21;6.78;;;3.55;;
51244;SDS011;37840;47.562;18.738;2023-06-22T09:05:47;5.43;;;3.65;;
51244;SDS011;37840;47.562;18.738;2023-06-22T09:08:13;6.15;;;3.60;;
51244;SDS011;37840;47.562;18.738;2023-06-22T09:10:39;5.05;;;3.50;;
51244;SDS011;37840;47.562;18.738;2023-06-22T09:13:05;6.57;;;4.10;;
51244;SDS011;37840;47.562;18.738;2023-06-22T09:15:31;4.05;;;3.40;;
51244;SDS011;37840;47.562;18.738;2023-06-22T09:17:57;8.00;;;4.37;;
51244;SDS011;37840;47.562;18.738;2023-06-22T09:20:23;5.00;;;4.03;;
51244;SDS011;37840;47.562;18.738;2023-06-22T09:22:49;6.72;;;3.90;;
51244;SDS011;37840;47.562;18.738;2023-06-22T09:25:15;6.12;;;4.00;;
51244;SDS011;37840;47.562;18.738;2023-06-22T09:27:41;4.78;;;3.65;;
51244;SDS011;37840;47.562;18.738;2023-06-22T09:30:07;6.75;;;3.70;;
51244;SDS011;37840;47.562;18.738;2023-06-22T09:32:33;6.60;;;3.75;;
51244;SDS011;37840;47.562;18.738;2023-06-22T09:35:01;4.85;;;4.35;;
51244;SDS011;37840;47.562;18.738;2023-06-22T09:37:31;5.80;;;4.80;;
51244;SDS011;37840;47.562;18.738;2023-06-22T09:39:57;6.47;;;4.20;;
51244;SDS011;37840;47.562;18.738;2023-06-22T09:42:23;4.68;;;4.00;;
51244;SDS011;37840;47.562;18.738;2023-06-22T09:44:48;7.78;;;4.80;;
51244;SDS011;37840;47.562;18.738;2023-06-22T09:47:14;4.68;;;4.22;;
51244;SDS011;37840;47.562;18.738;2023-06-22T09:49:40;6.05;;;4.62;;
51244;SDS011;37840;47.562;18.738;2023-06-22T09:52:06;5.22;;;4.20;;
51244;SDS011;37840;47.562;18.738;2023-06-22T09:54:32;5.40;;;4.12;;
51244;SDS011;37840;47.562;18.738;2023-06-22T09:56:58;6.25;;;4.30;;
51244;SDS011;37840;47.562;18.738;2023-06-22T09:59:24;6.68;;;5.00;;
51244;SDS011;37840;47.562;18.738;2023-06-22T10:01:50;6.40;;;4.85;;
51244;SDS011;37840;47.562;18.738;2023-06-22T10:04:16;5.40;;;4.75;;
51244;SDS011;37840;47.562;18.738;2023-06-22T10:06:42;6.50;;;5.03;;
51244;SDS011;37840;47.562;18.738;2023-06-22T10:09:08;6.78;;;4.97;;
51244;SDS011;37840;47.562;18.738;2023-06-22T10:11:34;6.12;;;5.12;;
51244;SDS011;37840;47.562;18.738;2023-06-22T10:14:01;8.73;;;5.32;;
51244;SDS011;37840;47.562;18.738;2023-06-22T10:16:32;6.32;;;5.60;;
51244;SDS011;37840;47.562;18.738;2023-06-22T10:19:01;5.90;;;4.68;;
51244;SDS011;37840;47.562;18.738;2023-06-22T10:21:27;7.12;;;5.62;;
51244;SDS011;37840;47.562;18.738;2023-06-22T10:23:54;6.90;;;5.45;;
51244;SDS011;37840;47.562;18.738;2023-06-22T10:26:21;6.95;;;5.32;;
51244;SDS011;37840;47.562;18.738;2023-06-22T10:28:47;6.25;;;5.25;;
51244;SDS011;37840;47.562;18.738;2023-06-22T10:31:13;6.07;;;5.37;;
51244;SDS011;37840;47.562;18.738;2023-06-22T10:33:39;6.72;;;5.20;;
51244;SDS011;37840;47.562;18.738;2023-06-22T10:36:07;7.05;;;5.60;;
51244;SDS011;37840;47.562;18.738;2023-06-22T10:38:32;7.72;;;5.45;;
51244;SDS011;37840;47.562;18.738;2023-06-22T10:40:58;6.70;;;5.47;;
51244;SDS011;37840;47.562;18.738;2023-06-22T10:43:24;9.90;;;5.90;;
51244;SDS011;37840;47.562;18.738;2023-06-22T10:45:50;7.25;;;5.35;;
51244;SDS011;37840;47.562;18.738;2023-06-22T10:48:16;8.10;;;5.65;;
51244;SDS011;37840;47.562;18.738;2023-06-22T10:50:42;6.65;;;5.05;;
51244;SDS011;37840;47.562;18.738;2023-06-22T10:53:08;6.82;;;5.55;;
51244;SDS011;37840;47.562;18.738;2023-06-22T10:55:34;5.82;;;5.12;;
51244;SDS011;37840;47.562;18.738;2023-06-22T10:58:00;6.20;;;5.20;;
51244;SDS011;37840;47.562;18.738;2023-06-22T11:00:26;5.95;;;5.35;;
51244;SDS011;37840;47.562;18.738;2023-06-22T11:02:52;6.45;;;5.15;;
51244;SDS011;37840;47.562;18.738;2023-06-22T11:05:18;8.20;;;5.20;;
51244;SDS011;37840;47.562;18.738;2023-06-22T11:07:44;10.35;;;5.68;;
51244;SDS011;37840;47.562;18.738;2023-06-22T11:10:10;5.97;;;5.18;;
51244;SDS011;37840;47.562;18.738;2023-06-22T11:12:37;6.53;;;4.82;;
51244;SDS011;37840;47.562;18.738;2023-06-22T11:15:03;8.32;;;4.30;;
51244;SDS011;37840;47.562;18.738;2023-06-22T11:17:30;6.07;;;4.65;;
51244;SDS011;37840;47.562;18.738;2023-06-22T11:19:56;5.93;;;4.85;;
51244;SDS011;37840;47.562;18.738;2023-06-22T11:22:22;5.78;;;4.70;;
51244;SDS011;37840;47.562;18.738;2023-06-22T11:24:48;6.45;;;4.97;;
51244;SDS011;37840;47.562;18.738;2023-06-22T11:27:13;6.45;;;4.43;;
51244;SDS011;37840;47.562;18.738;2023-06-22T11:29:39;8.13;;;4.57;;
51244;SDS011;37840;47.562;18.738;2023-06-22T11:32:06;5.90;;;4.40;;
51244;SDS011;37840;47.562;18.738;2023-06-22T11:34:33;5.70;;;4.55;;
51244;SDS011;37840;47.562;18.738;2023-06-22T11:36:59;7.68;;;4.72;;
51244;SDS011;37840;47.562;18.738;2023-06-22T11:39:25;6.55;;;5.10;;
51244;SDS011;37840;47.562;18.738;2023-06-22T11:41:50;6.53;;;5.25;;
51244;SDS011;37840;47.562;18.738;2023-06-22T11:44:16;6.43;;;4.40;;
51244;SDS011;37840;47.562;18.738;2023-06-22T11:46:42;6.68;;;4.20;;
51244;SDS011;37840;47.562;18.738;2023-06-22T11:49:08;6.68;;;4.37;;
51244;SDS011;37840;47.562;18.738;2023-06-22T11:51:34;5.35;;;4.50;;
51244;SDS011;37840;47.562;18.738;2023-06-22T11:54:00;5.65;;;4.65;;
51244;SDS011;37840;47.562;18.738;2023-06-22T11:56:27;5.95;;;4.72;;
51244;SDS011;37840;47.562;18.738;2023-06-22T11:58:53;7.68;;;5.18;;
51244;SDS011;37840;47.562;18.738;2023-06-22T12:01:19;7.12;;;5.35;;
51244;SDS011;37840;47.562;18.738;2023-06-22T12:03:46;6.87;;;5.43;;
51244;SDS011;37840;47.562;18.738;2023-06-22T12:06:12;8.82;;;4.97;;
51244;SDS011;37840;47.562;18.738;2023-06-22T12:08:38;6.60;;;4.80;;
51244;SDS011;37840;47.562;18.738;2023-06-22T12:11:04;5.68;;;4.12;;
51244;SDS011;37840;47.562;18.738;2023-06-22T12:13:30;8.35;;;4.55;;
51244;SDS011;37840;47.562;18.738;2023-06-22T12:15:56;5.32;;;3.97;;
51244;SDS011;37840;47.562;18.738;2023-06-22T12:18:21;5.07;;;3.70;;
51244;SDS011;37840;47.562;18.738;2023-06-22T12:20:47;7.28;;;4.00;;
51244;SDS011;37840;47.562;18.738;2023-06-22T12:23:14;7.30;;;4.65;;
51244;SDS011;37840;47.562;18.738;2023-06-22T12:25:40;8.05;;;4.18;;
51244;SDS011;37840;47.562;18.738;2023-06-22T12:28:06;6.10;;;4.10;;
51244;SDS011;37840;47.562;18.738;2023-06-22T12:30:32;5.65;;;4.12;;
51244;SDS011;37840;47.562;18.738;2023-06-22T12:32:59;5.97;;;4.30;;
51244;SDS011;37840;47.562;18.738;2023-06-22T12:35:25;6.32;;;4.20;;
51244;SDS011;37840;47.562;18.738;2023-06-22T12:37:50;5.50;;;4.15;;
51244;SDS011;37840;47.562;18.738;2023-06-22T12:40:16;4.87;;;3.90;;
51244;SDS011;37840;47.562;18.738;2023-06-22T12:42:44;4.62;;;4.15;;
51244;SDS011;37840;47.562;18.738;2023-06-22T12:45:10;5.95;;;4.43;;
51244;SDS011;37840;47.562;18.738;2023-06-22T12:47:36;5.97;;;4.35;;
51244;SDS011;37840;47.562;18.738;2023-06-22T12:50:02;7.40;;;4.45;;
51244;SDS011;37840;47.562;18.738;2023-06-22T12:52:30;7.70;;;4.75;;
51244;SDS011;37840;47.562;18.738;2023-06-22T12:54:57;7.50;;;4.62;;
51244;SDS011;37840;47.562;18.738;2023-06-22T12:57:23;8.02;;;4.75;;
51244;SDS011;37840;47.562;18.738;2023-06-22T12:59:49;5.20;;;4.70;;
51244;SDS011;37840;47.562;18.738;2023-06-22T13:02:15;6.53;;;5.30;;
51244;SDS011;37840;47.562;18.738;2023-06-22T13:04:41;6.87;;;5.10;;
51244;SDS011;37840;47.562;18.738;2023-06-22T13:07:08;5.37;;;4.32;;
51244;SDS011;37840;47.562;18.738;2023-06-22T13:09:35;8.30;;;4.85;;
51244;SDS011;37840;47.562;18.738;2023-06-22T13:12:02;7.70;;;4.87;;
51244;SDS011;37840;47.562;18.738;2023-06-22T13:14:28;7.68;;;5.20;;
51244;SDS011;37840;47.562;18.738;2023-06-22T13:16:54;5.80;;;4.85;;
51244;SDS011;37840;47.562;18.738;2023-06-22T13:19:19;8.80;;;4.97;;
51244;SDS011;37840;47.562;18.738;2023-06-22T13:21:45;6.95;;;4.80;;
51244;SDS011;37840;47.562;18.738;2023-06-22T13:24:11;5.95;;;4.68;;
51244;SDS011;37840;47.562;18.738;2023-06-22T13:26:37;5.68;;;5.10;;
51244;SDS011;37840;47.562;18.738;2023-06-22T13:29:03;7.25;;;5.37;;
51244;SDS011;37840;47.562;18.738;2023-06-22T13:31:30;6.05;;;5.12;;
51244;SDS011;37840;47.562;18.738;2023-06-22T13:33:55;9.27;;;5.55;;
51244;SDS011;37840;47.562;18.738;2023-06-22T13:36:21;8.13;;;5.28;;
51244;SDS011;37840;47.562;18.738;2023-06-22T13:38:50;6.47;;;5.50;;
51244;SDS011;37840;47.562;18.738;2023-06-22T13:41:16;7.12;;;5.55;;
51244;SDS011;37840;47.562;18.738;2023-06-22T13:43:41;9.88;;;5.65;;
51244;SDS011;37840;47.562;18.738;2023-06-22T13:46:07;7.18;;;5.93;;
51244;SDS011;37840;47.562;18.738;2023-06-22T13:48:33;7.75;;;5.65;;
51244;SDS011;37840;47.562;18.738;2023-06-22T13:50:59;9.40;;;6.22;;
51244;SDS011;37840;47.562;18.738;2023-06-22T13:53:25;8.45;;;6.12;;
51244;SDS011;37840;47.562;18.738;2023-06-22T13:55:52;7.65;;;6.03;;
51244;SDS011;37840;47.562;18.738;2023-06-22T13:58:18;7.68;;;6.30;;
51244;SDS011;37840;47.562;18.738;2023-06-22T14:00:45;7.93;;;6.35;;
51244;SDS011;37840;47.562;18.738;2023-06-22T14:03:11;9.93;;;5.45;;
51244;SDS011;37840;47.562;18.738;2023-06-22T14:05:37;9.10;;;6.07;;
51244;SDS011;37840;47.562;18.738;2023-06-22T14:08:03;7.70;;;5.70;;
51244;SDS011;37840;47.562;18.738;2023-06-22T14:10:29;6.60;;;5.90;;
51244;SDS011;37840;47.562;18.738;2023-06-22T14:12:55;7.03;;;5.68;;
51244;SDS011;37840;47.562;18.738;2023-06-22T14:15:20;7.80;;;6.10;;
51244;SDS011;37840;47.562;18.738;2023-06-22T14:17:46;9.00;;;6.00;;
51244;SDS011;37840;47.562;18.738;2023-06-22T14:20:12;6.65;;;5.65;;
51244;SDS011;37840;47.562;18.738;2023-06-22T14:22:38;7.30;;;5.95;;
51244;SDS011;37840;47.562;18.738;2023-06-22T14:25:05;9.15;;;6.07;;
51244;SDS011;37840;47.562;18.738;2023-06-22T14:27:31;6.07;;;5.47;;
51244;SDS011;37840;47.562;18.738;2023-06-22T14:29:57;6.82;;;6.00;;
51244;SDS011;37840;47.562;18.738;2023-06-22T14:32:23;7.55;;;5.78;;
51244;SDS011;37840;47.562;18.738;2023-06-22T14:34:50;12.23;;;6.60;;
51244;SDS011;37840;47.562;18.738;2023-06-22T14:37:16;7.22;;;6.07;;
51244;SDS011;37840;47.562;18.738;2023-06-22T14:39:42;7.78;;;6.32;;
51244;SDS011;37840;47.562;18.738;2023-06-22T14:42:08;8.55;;;6.25;;
51244;SDS011;37840;47.562;18.738;2023-06-22T14:44:34;7.05;;;6.20;;
51244;SDS011;37840;47.562;18.738;2023-06-22T14:47:00;9.75;;;6.40;;
51244;SDS011;37840;47.562;18.738;2023-06-22T14:49:26;9.32;;;6.35;;
51244;SDS011;37840;47.562;18.738;2023-06-22T14:51:52;8.80;;;6.68;;
51244;SDS011;37840;47.562;18.738;2023-06-22T14:54:18;8.85;;;6.93;;
51244;SDS011;37840;47.562;18.738;2023-06-22T14:56:44;7.47;;;6.30;;
51244;SDS011;37840;47.562;18.738;2023-06-22T14:59:10;8.23;;;6.30;;
51244;SDS011;37840;47.562;18.738;2023-06-22T15:01:36;8.35;;;6.12;;
51244;SDS011;37840;47.562;18.738;2023-06-22T15:04:02;8.38;;;6.10;;
51244;SDS011;37840;47.562;18.738;2023-06-22T15:06:28;8.63;;;6.20;;
51244;SDS011;37840;47.562;18.738;2023-06-22T15:08:54;7.75;;;6.62;;
51244;SDS011;37840;47.562;18.738;2023-06-22T15:11:20;8.63;;;6.10;;
51244;SDS011;37840;47.562;18.738;2023-06-22T15:13:46;8.40;;;5.87;;
51244;SDS011;37840;47.562;18.738;2023-06-22T15:16:12;8.88;;;6.90;;
51244;SDS011;37840;47.562;18.738;2023-06-22T15:18:38;8.10;;;5.82;;
51244;SDS011;37840;47.562;18.738;2023-06-22T15:21:06;8.93;;;5.85;;
51244;SDS011;37840;47.562;18.738;2023-06-22T15:23:35;8.65;;;6.18;;